Time;durP1;ratioP1;P1;durP2;ratioP2;P2;SDS_P1;SDS_P2;PMS_P1;PMS_P2;Temp;Humidity;BMP_temperature;BMP_pressure;BME280_temperature;BME280_humidity;BME280_pressure;Samples;Min_cycle;Max_cycle;Signal;HPM_P1;HPM_P2
2022/09/08 00:01:55;;;;;;;17.30;9.27;;;13.70;99.90;;;;;;10360459;28;20048;-83
2022/09/08 00:06:56;;;;;;;15.15;8.52;;;13.70;99.90;;;;;;10363561;28;20018;-83
2022/09/08 00:11:57;;;;;;;21.15;9.77;;;13.70;99.90;;;;;;10362019;28;20040;-83
2022/09/08 00:16:58;;;;;;;19.90;10.57;;;13.60;99.90;;;;;;10361472;28;20046;-83
2022/09/08 00:21:58;;;;;;;18.45;9.35;;;13.60;99.90;;;;;;10365384;28;20048;-83
2022/09/08 00:26:59;;;;;;;18.13;10.80;;;13.40;99.90;;;;;;10362694;28;20054;-84
2022/09/08 00:32:00;;;;;;;17.08;8.52;;;13.50;99.90;;;;;;10360449;28;20040;-81
2022/09/08 00:37:00;;;;;;;14.32;8.68;;;13.40;99.90;;;;;;10366211;28;20037;-83
2022/09/08 00:42:01;;;;;;;16.52;9.00;;;13.40;99.90;;;;;;10365509;28;20018;-85
2022/09/08 00:47:03;;;;;;;18.05;8.95;;;13.30;99.90;;;;;;10362091;28;20048;-83
2022/09/08 00:52:04;;;;;;;17.15;8.32;;;13.30;99.90;;;;;;10358888;28;20026;-84
2022/09/08 00:57:05;;;;;;;15.75;8.20;;;13.30;99.90;;;;;;10360555;28;20425;-83
2022/09/08 01:02:25;;;;;;;15.90;8.45;;;13.30;99.90;;;;;;10359863;28;20045;-86
2022/09/08 01:13:08;;;;;;;17.05;8.73;;;13.20;99.90;;;;;;10364532;28;20030;-83
2022/09/08 01:18:09;;;;;;;13.30;7.97;;;13.20;99.90;;;;;;10366666;28;20038;-84
2022/09/08 01:23:12;;;;;;;13.20;7.75;;;13.20;99.90;;;;;;10369004;28;20440;-84
2022/09/08 01:28:31;;;;;;;14.80;8.27;;;13.10;99.90;;;;;;10372524;28;20261;-86
2022/09/08 01:33:31;;;;;;;15.38;8.38;;;13.00;99.90;;;;;;10370978;28;20113;-83
2022/09/08 01:38:32;;;;;;;10.55;6.45;;;12.90;99.90;;;;;;10371834;28;20042;-83
2022/09/08 01:43:32;;;;;;;12.30;7.10;;;12.90;99.90;;;;;;10369529;28;20026;-83
2022/09/08 01:48:33;;;;;;;14.85;7.05;;;12.80;99.90;;;;;;10368378;28;20657;-83
2022/09/08 01:53:34;;;;;;;19.10;9.32;;;12.70;99.90;;;;;;10371556;28;20034;-83
2022/09/08 01:58:35;;;;;;;16.75;8.75;;;12.60;99.90;;;;;;10367486;28;20049;-82
2022/09/08 02:03:35;;;;;;;20.17;10.27;;;12.50;99.90;;;;;;10369882;28;20041;-83
2022/09/08 02:08:36;;;;;;;21.52;11.35;;;12.50;99.90;;;;;;10370511;28;20415;-85
2022/09/08 02:13:37;;;;;;;25.60;11.10;;;12.50;99.90;;;;;;10370265;28;20029;-83
2022/09/08 02:18:39;;;;;;;17.67;9.27;;;12.50;99.90;;;;;;10365418;28;20141;-86
2022/09/08 02:23:42;;;;;;;19.42;9.93;;;12.40;99.90;;;;;;10369326;28;20029;-82
2022/09/08 02:28:43;;;;;;;17.23;10.00;;;12.50;99.90;;;;;;10361207;28;20508;-83
2022/09/08 02:33:44;;;;;;;16.23;9.35;;;12.40;99.90;;;;;;10367142;28;20092;-86
2022/09/08 02:38:55;;;;;;;15.82;8.45;;;12.40;99.90;;;;;;10365296;28;20091;-85
2022/09/08 02:43:56;;;;;;;17.70;9.38;;;12.40;99.90;;;;;;10366630;28;20788;-83
2022/09/08 02:48:57;;;;;;;16.35;7.97;;;12.50;99.90;;;;;;10363870;28;20030;-83
2022/09/08 02:53:57;;;;;;;14.32;8.77;;;12.50;99.90;;;;;;10369013;28;20036;-83
2022/09/08 02:58:58;;;;;;;17.77;8.90;;;12.50;99.90;;;;;;10364328;28;20034;-86
2022/09/08 03:03:59;;;;;;;18.45;10.40;;;12.50;99.90;;;;;;10358928;28;20041;-85
2022/09/08 03:08:59;;;;;;;20.95;10.80;;;12.60;99.90;;;;;;10365749;28;20684;-85
2022/09/08 03:14:01;;;;;;;19.85;10.13;;;12.50;99.90;;;;;;10362654;28;20044;-85
2022/09/08 03:19:01;;;;;;;16.73;10.05;;;12.50;99.90;;;;;;10364286;28;20037;-86
2022/09/08 03:24:02;;;;;;;19.05;10.27;;;12.50;99.90;;;;;;10363598;28;20034;-83
2022/09/08 03:29:02;;;;;;;16.73;9.82;;;12.40;99.90;;;;;;10364303;28;20556;-85
2022/09/08 03:34:03;;;;;;;18.02;10.13;;;12.30;99.90;;;;;;10357584;28;20057;-82
2022/09/08 03:39:04;;;;;;;17.42;8.93;;;12.40;99.90;;;;;;10362569;28;20038;-82
2022/09/08 03:44:04;;;;;;;17.60;8.93;;;12.40;99.90;;;;;;10358759;28;20040;-82
2022/09/08 03:49:05;;;;;;;18.13;8.45;;;12.50;99.90;;;;;;10362683;28;20053;-82
2022/09/08 03:59:25;;;;;;;15.38;8.93;;;12.70;99.90;;;;;;10357950;28;20540;-82
2022/09/08 04:04:26;;;;;;;15.68;9.48;;;12.70;99.90;;;;;;10363697;28;20140;-80
2022/09/08 04:09:27;;;;;;;16.70;9.35;;;12.60;99.90;;;;;;10362921;28;20034;-85
2022/09/08 04:14:27;;;;;;;15.63;9.07;;;12.40;99.90;;;;;;10354923;28;20034;-83
2022/09/08 04:19:28;;;;;;;16.52;9.80;;;12.20;99.90;;;;;;10359276;28;20121;-83
2022/09/08 04:24:29;;;;;;;17.17;9.50;;;12.20;99.90;;;;;;10360187;28;20038;-81
2022/09/08 04:29:29;;;;;;;16.48;8.98;;;12.20;99.90;;;;;;10360221;28;20033;-81
2022/09/08 04:34:30;;;;;;;15.40;8.10;;;12.20;99.90;;;;;;10360632;28;20042;-83
2022/09/08 04:39:31;;;;;;;14.98;9.70;;;12.20;99.90;;;;;;10361909;28;20041;-81
2022/09/08 04:44:32;;;;;;;18.85;10.05;;;12.20;99.90;;;;;;10352334;28;20445;-81
2022/09/08 04:49:32;;;;;;;14.48;9.30;;;12.30;99.90;;;;;;10357889;28;20084;-82
2022/09/08 04:54:33;;;;;;;20.65;10.23;;;12.40;99.90;;;;;;10354559;28;20432;-82
2022/09/08 04:59:34;;;;;;;14.18;8.48;;;12.40;99.90;;;;;;10360821;28;20038;-85
2022/09/08 05:04:34;;;;;;;17.38;8.98;;;12.50;99.90;;;;;;10359037;28;20172;-82
2022/09/08 05:09:35;;;;;;;15.55;9.02;;;12.70;99.90;;;;;;10361124;28;20041;-83
2022/09/08 05:14:35;;;;;;;19.38;9.65;;;12.80;99.90;;;;;;10361228;28;20109;-82
2022/09/08 05:19:36;;;;;;;20.73;9.70;;;13.00;99.90;;;;;;10360141;28;20116;-84
2022/09/08 05:24:36;;;;;;;14.80;8.45;;;13.10;99.90;;;;;;10361550;28;20493;-82
2022/09/08 05:29:37;;;;;;;15.38;8.88;;;13.20;99.90;;;;;;10359067;28;20042;-81
2022/09/08 05:34:39;;;;;;;14.65;8.93;;;13.30;99.90;;;;;;10361977;28;20100;-81
2022/09/08 05:39:39;;;;;;;17.50;9.70;;;13.50;99.90;;;;;;10361296;28;20033;-80
2022/09/08 05:44:40;;;;;;;15.27;8.75;;;13.70;99.90;;;;;;10359254;28;20040;-82
2022/09/08 05:49:40;;;;;;;17.30;9.48;;;13.80;99.90;;;;;;10361548;28;20133;-82
2022/09/08 05:54:41;;;;;;;15.57;9.48;;;14.00;99.90;;;;;;10369491;28;20381;-82
2022/09/08 05:59:41;;;;;;;21.30;11.60;;;14.20;99.90;;;;;;10365316;28;20038;-82
2022/09/08 06:04:42;;;;;;;23.58;11.43;;;14.40;99.90;;;;;;10368519;28;20041;-82
2022/09/08 06:09:43;;;;;;;24.35;12.40;;;14.60;99.90;;;;;;10358638;28;20108;-81
2022/09/08 06:14:43;;;;;;;21.95;11.60;;;14.80;99.90;;;;;;10367815;28;20038;-82
2022/09/08 06:19:44;;;;;;;25.25;12.50;;;15.10;99.90;;;;;;10362173;28;20042;-85
2022/09/08 06:24:45;;;;;;;22.95;12.73;;;15.30;99.90;;;;;;10361803;28;20034;-82
2022/09/08 06:41:49;;;;;;;22.88;12.68;;;16.00;99.90;;;;;;10364292;28;20570;-83
2022/09/08 06:46:50;;;;;;;31.52;15.35;;;16.30;99.90;;;;;;10359426;28;20038;-81
2022/09/08 06:52:00;;;;;;;24.15;14.15;;;16.60;99.90;;;;;;10366674;28;20036;-82
2022/09/08 06:57:47;;;;;;;28.25;14.82;;;17.00;99.90;;;;;;10365611;28;20187;-81
2022/09/08 07:02:56;;;;;;;23.20;12.57;;;17.20;99.90;;;;;;10343005;28;20042;-82
2022/09/08 07:08:38;;;;;;;25.55;13.23;;;17.60;99.90;;;;;;10363898;28;20038;-82
2022/09/08 07:13:58;;;;;;;24.17;12.38;;;17.90;99.90;;;;;;10346344;28;20521;-82
2022/09/08 07:19:08;;;;;;;23.75;11.77;;;18.30;99.90;;;;;;10361313;28;20046;-82
2022/09/08 07:24:14;;;;;;;24.30;12.13;;;18.70;99.90;;;;;;10364813;28;20034;-81
2022/09/08 07:29:22;;;;;;;25.88;12.82;;;19.00;99.90;;;;;;10358889;28;20124;-82
2022/09/08 07:34:25;;;;;;;30.90;12.18;;;19.40;99.90;;;;;;10365084;28;20034;-82
2022/09/08 07:39:38;;;;;;;26.85;13.05;;;19.70;99.90;;;;;;10362757;28;20100;-82
2022/09/08 07:44:40;;;;;;;33.40;13.48;;;20.00;99.90;;;;;;10363067;28;20025;-82
2022/09/08 07:50:05;;;;;;;24.58;12.57;;;20.40;99.90;;;;;;10359362;28;20116;-82
2022/09/08 07:55:05;;;;;;;23.13;12.20;;;20.70;98.00;;;;;;10364219;28;20507;-82
2022/09/08 08:00:12;;;;;;;19.85;11.50;;;21.00;97.30;;;;;;10361853;28;20048;-83
2022/09/08 08:05:36;;;;;;;26.98;14.68;;;21.20;96.90;;;;;;10354248;28;20117;-83
2022/09/08 08:11:03;;;;;;;27.88;14.52;;;21.60;97.00;;;;;;10374715;28;20437;-82
2022/09/08 08:16:09;;;;;;;24.90;13.70;;;21.80;95.60;;;;;;10358425;28;20032;-83
2022/09/08 08:21:15;;;;;;;24.77;13.75;;;22.10;94.60;;;;;;10360813;28;20029;-83
2022/09/08 08:26:53;;;;;;;22.88;12.85;;;22.40;94.40;;;;;;10367071;28;20093;-83
2022/09/08 08:32:09;;;;;;;23.27;11.70;;;22.90;93.50;;;;;;10359152;28;20022;-82
2022/09/08 08:37:19;;;;;;;28.23;12.77;;;23.10;92.90;;;;;;10361772;28;20037;-82
2022/09/08 08:42:55;;;;;;;23.90;11.35;;;23.40;91.00;;;;;;10359469;28;20109;-85
2022/09/08 08:48:26;;;;;;;19.05;11.27;;;23.70;90.30;;;;;;10346505;28;20077;-82
2022/09/08 08:53:37;;;;;;;17.25;10.98;;;23.90;91.00;;;;;;10344548;28;20576;-84
2022/09/08 08:59:04;;;;;;;22.10;11.38;;;24.20;89.70;;;;;;10359623;28;20037;-82
2022/09/08 09:04:24;;;;;;;20.13;11.50;;;24.40;89.30;;;;;;10355886;28;20030;-83
2022/09/08 09:09:49;;;;;;;18.30;10.32;;;24.70;89.30;;;;;;10361561;28;20091;-85
2022/09/08 09:15:19;;;;;;;19.45;11.15;;;25.00;87.90;;;;;;10356708;28;20029;-82
2022/09/08 09:20:20;;;;;;;13.38;8.90;;;25.20;88.20;;;;;;10354275;28;20551;-83
2022/09/08 09:25:34;;;;;;;14.52;8.73;;;25.50;86.20;;;;;;10361566;28;20049;-83
2022/09/08 09:31:21;;;;;;;14.55;8.88;;;25.70;84.80;;;;;;10367388;28;20052;-83
2022/09/08 09:36:38;;;;;;;18.02;9.95;;;26.00;84.20;;;;;;10380878;28;20681;-83
2022/09/08 09:42:12;;;;;;;14.43;8.48;;;26.30;82.50;;;;;;10366669;28;20027;-82
2022/09/08 09:47:47;;;;;;;15.20;9.02;;;26.50;85.60;;;;;;10362497;28;20040;-82
2022/09/08 09:53:58;;;;;;;16.92;10.05;;;26.70;81.80;;;;;;10365733;28;20026;-82
2022/09/08 09:59:18;;;;;;;17.05;9.95;;;26.80;81.90;;;;;;10331768;28;20041;-81
2022/09/08 10:04:46;;;;;;;14.82;10.30;;;27.10;82.40;;;;;;10366163;28;20127;-84
2022/09/08 10:10:08;;;;;;;17.05;12.65;;;27.20;79.50;;;;;;10366818;28;20033;-81
2022/09/08 10:15:37;;;;;;;20.92;13.98;;;27.20;78.30;;;;;;10363251;28;20060;-83
2022/09/08 10:21:13;;;;;;;16.35;9.65;;;27.30;76.30;;;;;;10363279;28;20048;-83
2022/09/08 10:26:37;;;;;;;11.35;8.68;;;27.30;77.60;;;;;;10361717;28;20127;-83
2022/09/08 10:32:09;;;;;;;12.50;7.57;;;27.30;77.90;;;;;;10363820;28;20053;-81
2022/09/08 10:37:47;;;;;;;10.95;7.90;;;27.50;76.20;;;;;;10354378;28;20399;-81
2022/09/08 10:43:13;;;;;;;12.55;8.98;;;27.70;77.40;;;;;;10357639;28;20036;-82
2022/09/08 10:48:35;;;;;;;10.15;7.93;;;27.70;77.70;;;;;;10364755;28;20039;-81
2022/09/08 10:53:56;;;;;;;12.55;7.78;;;27.90;74.30;;;;;;10375565;28;20269;-83
2022/09/08 10:59:11;;;;;;;11.27;8.02;;;27.90;74.70;;;;;;10355259;28;20077;-81
2022/09/08 11:04:48;;;;;;;11.38;7.82;;;28.10;76.10;;;;;;10363467;28;20057;-80
2022/09/08 11:10:16;;;;;;;10.30;8.18;;;28.10;74.90;;;;;;10365782;28;20033;-81
2022/09/08 11:15:58;;;;;;;10.18;8.13;;;28.10;72.40;;;;;;10360361;28;20193;-83
2022/09/08 11:26:45;;;;;;;11.45;7.93;;;28.60;72.40;;;;;;10361724;28;20061;-83
2022/09/08 11:31:54;;;;;;;8.70;7.60;;;28.50;73.40;;;;;;10372341;28;20164;-81
2022/09/08 11:37:20;;;;;;;11.27;7.35;;;28.60;71.50;;;;;;10370991;28;20049;-82
2022/09/08 11:42:57;;;;;;;10.43;7.78;;;28.50;72.40;;;;;;10362235;28;20401;-82
2022/09/08 11:48:22;;;;;;;14.52;7.88;;;28.20;72.90;;;;;;10353645;28;20037;-83
2022/09/08 11:53:33;;;;;;;12.90;8.70;;;27.80;73.10;;;;;;10362235;28;20038;-81
2022/09/08 11:58:55;;;;;;;12.35;8.85;;;27.40;74.20;;;;;;10356947;28;20034;-82
2022/09/08 12:04:20;;;;;;;11.68;8.48;;;27.40;74.10;;;;;;10357536;28;20583;-82
2022/09/08 12:09:49;;;;;;;12.32;8.68;;;27.60;74.30;;;;;;10360950;28;20038;-81
2022/09/08 12:15:20;;;;;;;11.25;8.98;;;28.00;73.30;;;;;;10359708;28;20061;-81
2022/09/08 12:20:39;;;;;;;11.63;8.20;;;28.40;70.80;;;;;;10359128;28;20127;-82
2022/09/08 12:26:07;;;;;;;13.32;8.77;;;28.40;73.50;;;;;;10356086;28;20108;-82
2022/09/08 12:31:34;;;;;;;14.27;9.07;;;28.80;70.90;;;;;;10354550;28;20038;-82
2022/09/08 12:36:41;;;;;;;12.65;10.07;;;28.50;69.00;;;;;;10358275;28;20120;-82
2022/09/08 12:41:55;;;;;;;15.07;9.55;;;28.00;71.30;;;;;;10362576;28;20038;-81
2022/09/08 12:47:05;;;;;;;13.17;9.70;;;27.80;73.90;;;;;;10351952;28;20077;-82
2022/09/08 12:52:17;;;;;;;17.73;9.98;;;27.50;73.00;;;;;;10354323;28;20022;-81
2022/09/08 12:57:46;;;;;;;14.68;9.57;;;27.60;73.40;;;;;;10359548;28;20068;-81
2022/09/08 13:02:59;;;;;;;14.48;9.57;;;27.50;72.40;;;;;;10364389;28;20125;-85
2022/09/08 13:08:30;;;;;;;11.68;9.15;;;27.70;74.50;;;;;;10369744;28;20029;-83
2022/09/08 13:13:35;;;;;;;12.57;9.30;;;27.90;73.90;;;;;;10371076;28;20044;-84
2022/09/08 13:19:10;;;;;;;13.15;8.63;;;28.30;71.60;;;;;;10366810;28;20046;-83
2022/09/08 13:24:17;;;;;;;12.10;9.20;;;28.40;69.50;;;;;;10364858;28;20040;-81
2022/09/08 13:29:56;;;;;;;14.40;10.63;;;28.30;70.10;;;;;;10365040;28;20052;-80
2022/09/08 13:35:21;;;;;;;26.15;17.23;;;28.30;69.90;;;;;;10369704;28;20041;-80
2022/09/08 13:40:59;;;;;;;25.75;13.20;;;28.20;68.40;;;;;;10368949;28;20497;-80
2022/09/08 13:46:27;;;;;;;21.52;12.13;;;27.90;70.90;;;;;;10366287;28;20121;-82
2022/09/08 13:52:08;;;;;;;19.45;12.70;;;27.50;70.00;;;;;;10364807;28;20030;-82
2022/09/08 13:57:34;;;;;;;18.90;11.45;;;27.30;71.50;;;;;;10366648;28;20065;-81
2022/09/08 14:02:58;;;;;;;25.63;18.48;;;26.90;73.00;;;;;;10364791;28;20486;-82
2022/09/08 14:08:11;;;;;;;18.33;11.80;;;26.40;73.30;;;;;;10363387;28;20022;-82
2022/09/08 14:13:15;;;;;;;20.17;12.38;;;26.00;74.60;;;;;;10363683;28;20046;-81
2022/09/08 14:18:27;;;;;;;16.40;11.70;;;25.60;76.30;;;;;;10364701;28;20046;-82
2022/09/08 14:23:50;;;;;;;17.15;11.85;;;25.40;77.70;;;;;;10364986;28;20034;-83
2022/09/08 14:29:09;;;;;;;19.83;15.50;;;25.20;77.80;;;;;;10364261;28;20560;-83
2022/09/08 14:34:28;;;;;;;21.48;13.02;;;25.10;79.20;;;;;;10360828;28;20448;-83
2022/09/08 14:39:47;;;;;;;19.08;12.75;;;24.80;79.70;;;;;;10360404;28;20045;-82
2022/09/08 14:45:01;;;;;;;21.00;14.55;;;24.60;80.50;;;;;;10363951;28;20045;-83
2022/09/08 14:50:23;;;;;;;20.90;14.90;;;24.50;81.90;;;;;;10364972;28;20736;-83
2022/09/08 14:55:33;;;;;;;24.42;14.27;;;24.20;83.90;;;;;;10362001;28;20022;-83
2022/09/08 15:00:40;;;;;;;19.10;15.27;;;23.90;86.70;;;;;;10363248;28;20124;-84
2022/09/08 15:05:47;;;;;;;19.73;15.15;;;23.70;87.60;;;;;;10363680;28;20029;-84
2022/09/08 15:10:50;;;;;;;30.13;17.67;;;23.40;88.70;;;;;;10362619;28;20088;-84
2022/09/08 15:16:10;;;;;;;33.63;22.27;;;23.30;91.00;;;;;;10355658;28;20033;-85
2022/09/08 15:21:22;;;;;;;37.78;26.05;;;22.40;99.90;;;;;;10361183;28;20049;-84
2022/09/08 15:26:49;;;;;;;39.97;27.10;;;21.20;99.90;;;;;;10361956;28;20085;-82
2022/09/08 15:32:04;;;;;;;41.88;29.58;;;20.60;99.90;;;;;;10364134;28;20076;-82
2022/09/08 15:37:10;;;;;;;58.03;35.70;;;20.30;99.90;;;;;;10361698;28;20646;-85
2022/09/08 15:42:41;;;;;;;90.85;47.97;;;20.10;99.90;;;;;;10361212;28;20037;-83
2022/09/08 15:47:46;;;;;;;53.60;35.22;;;20.00;99.90;;;;;;10352772;28;20021;-82
2022/09/08 15:53:11;;;;;;;99.00;53.83;;;19.60;99.90;;;;;;10359418;28;20660;-84
2022/09/08 15:58:35;;;;;;;125.65;62.42;;;19.30;99.90;;;;;;10355654;28;20123;-83
2022/09/08 16:03:38;;;;;;;70.35;42.97;;;19.30;99.90;;;;;;10353459;28;20037;-84
2022/09/08 16:09:16;;;;;;;72.22;43.53;;;19.30;99.90;;;;;;10361462;28;20437;-84
2022/09/08 16:14:37;;;;;;;88.07;48.15;;;19.20;99.90;;;;;;10344903;28;20058;-85
2022/09/08 16:19:38;;;;;;;52.92;32.00;;;19.20;99.90;;;;;;10361155;28;20263;-85
2022/09/08 16:24:45;;;;;;;43.95;27.30;;;19.20;99.90;;;;;;10363264;28;20026;-85
2022/09/08 16:30:01;;;;;;;63.10;36.20;;;19.00;99.90;;;;;;10357075;28;20046;-85
2022/09/08 16:35:27;;;;;;;64.85;31.35;;;18.70;99.90;;;;;;10352437;28;20041;-83
2022/09/08 16:40:29;;;;;;;56.33;26.20;;;18.60;99.90;;;;;;10360241;28;20042;-82
2022/09/08 16:45:36;;;;;;;87.18;31.20;;;18.20;99.90;;;;;;10360832;28;20052;-83
2022/09/08 16:50:44;;;;;;;55.90;27.02;;;18.10;99.90;;;;;;10360265;28;20038;-83
2022/09/08 16:56:03;;;;;;;32.42;17.88;;;18.10;99.90;;;;;;10362923;28;20091;-82
2022/09/08 17:01:26;;;;;;;25.17;13.82;;;17.90;99.90;;;;;;10359256;28;20065;-81
2022/09/08 17:06:35;;;;;;;23.13;12.48;;;17.60;99.90;;;;;;10373637;28;20063;-81
2022/09/08 17:11:53;;;;;;;21.75;12.65;;;17.30;99.90;;;;;;10359291;28;20049;-82
2022/09/08 17:17:31;;;;;;;29.77;16.38;;;17.10;99.90;;;;;;10356834;28;20046;-82
2022/09/08 17:22:43;;;;;;;22.58;13.85;;;17.00;99.90;;;;;;10352863;28;20029;-80
2022/09/08 17:27:54;;;;;;;31.30;17.70;;;17.10;99.90;;;;;;10357660;28;20528;-82
2022/09/08 17:33:17;;;;;;;31.70;17.95;;;17.10;99.90;;;;;;10355636;28;20030;-81
2022/09/08 17:38:26;;;;;;;25.48;14.70;;;17.20;99.90;;;;;;10350631;28;20121;-81
2022/09/08 17:43:45;;;;;;;28.92;13.50;;;17.20;99.90;;;;;;10357878;28;20108;-83
2022/09/08 17:48:54;;;;;;;19.50;10.05;;;17.30;99.90;;;;;;10361168;28;20125;-84
2022/09/08 17:54:03;;;;;;;20.10;10.15;;;17.30;99.90;;;;;;10362951;28;20177;-82
2022/09/08 17:59:22;;;;;;;28.05;12.15;;;17.30;99.90;;;;;;10365909;28;20034;-83
2022/09/08 18:04:29;;;;;;;20.73;10.82;;;17.10;99.90;;;;;;10364831;28;20053;-83
2022/09/08 18:09:30;;;;;;;24.45;9.95;;;17.00;99.90;;;;;;10362882;28;20477;-83
2022/09/08 18:14:49;;;;;;;31.33;12.40;;;17.00;99.90;;;;;;10364887;28;20029;-82
2022/09/08 18:20:01;;;;;;;32.08;13.05;;;17.00;99.90;;;;;;10367330;28;20061;-82
2022/09/08 18:25:14;;;;;;;38.30;12.95;;;17.00;99.90;;;;;;10366036;28;20026;-83
2022/09/08 18:30:25;;;;;;;26.38;8.85;;;17.00;99.90;;;;;;10367214;28;20053;-84
2022/09/08 18:35:48;;;;;;;19.88;7.72;;;16.90;99.90;;;;;;10365649;28;20037;-85
2022/09/08 18:41:00;;;;;;;22.30;8.95;;;16.60;99.90;;;;;;10365756;28;20413;-84
2022/09/08 18:46:29;;;;;;;17.10;8.02;;;16.40;99.90;;;;;;10360262;28;20421;-84
2022/09/08 18:51:48;;;;;;;17.15;7.03;;;16.30;99.90;;;;;;10363820;28;20065;-84
2022/09/08 18:56:56;;;;;;;11.90;5.63;;;16.20;99.90;;;;;;10363229;28;20053;-83
2022/09/08 19:02:13;;;;;;;18.02;5.93;;;16.10;99.90;;;;;;10351508;28;20469;-84
2022/09/08 19:07:40;;;;;;;17.20;7.05;;;16.10;99.90;;;;;;10357916;28;20060;-82
2022/09/08 19:13:19;;;;;;;20.17;6.70;;;16.10;99.90;;;;;;10352751;28;20108;-83
2022/09/08 19:18:33;;;;;;;119.25;19.98;;;16.30;99.90;;;;;;10364884;28;20666;-83
2022/09/08 19:23:36;;;;;;;47.55;11.32;;;16.40;99.90;;;;;;10359277;28;20065;-83
2022/09/08 19:28:39;;;;;;;23.55;7.45;;;16.50;99.90;;;;;;10357313;28;20655;-82
2022/09/08 19:34:00;;;;;;;43.63;10.95;;;16.60;99.90;;;;;;10364892;28;20048;-82
2022/09/08 19:39:16;;;;;;;30.23;10.07;;;16.70;99.90;;;;;;10361610;28;20490;-82
2022/09/08 19:44:46;;;;;;;124.45;21.80;;;16.80;99.90;;;;;;10352903;28;20038;-82
2022/09/08 19:49:52;;;;;;;22.52;8.90;;;16.70;99.90;;;;;;10357074;28;20022;-82
2022/09/08 19:54:59;;;;;;;83.18;17.95;;;16.70;99.90;;;;;;10364735;28;20057;-82
2022/09/08 20:00:20;;;;;;;116.35;21.95;;;16.80;99.90;;;;;;10364466;28;20033;-82
2022/09/08 20:05:22;;;;;;;27.50;9.43;;;16.80;99.90;;;;;;10352726;28;20080;-82
2022/09/08 20:10:26;;;;;;;19.95;7.75;;;16.70;99.90;;;;;;10359466;28;20117;-82
2022/09/08 20:15:35;;;;;;;35.75;10.18;;;16.60;99.90;;;;;;10353807;28;20527;-82
2022/09/08 20:20:37;;;;;;;83.68;18.13;;;16.70;99.90;;;;;;10356107;28;20050;-82
2022/09/08 20:26:11;;;;;;;47.80;11.75;;;16.80;99.90;;;;;;10366073;28;20259;-81
2022/09/08 20:31:16;;;;;;;60.95;15.73;;;16.90;99.90;;;;;;10363979;28;20084;-81
2022/09/08 20:36:35;;;;;;;24.50;10.27;;;17.00;99.90;;;;;;10357368;28;20036;-82
2022/09/08 20:41:39;;;;;;;70.90;16.88;;;17.00;99.90;;;;;;10360586;28;20052;-82
2022/09/08 20:47:11;;;;;;;68.60;16.75;;;17.00;99.90;;;;;;10362728;28;20045;-82
2022/09/08 20:52:27;;;;;;;37.42;12.95;;;17.10;99.90;;;;;;10366980;28;20060;-82
2022/09/08 20:57:48;;;;;;;;;;;17.10;99.90;;;;;;10360442;28;20042;-82
2022/09/08 21:02:50;;;;;;;79.90;19.73;;;17.10;99.90;;;;;;10362315;28;19945;-83
2022/09/08 21:07:55;;;;;;;128.98;29.02;;;17.10;99.90;;;;;;10364073;28;20084;-81
2022/09/08 21:13:05;;;;;;;;;;;17.10;99.90;;;;;;10364792;28;20054;-81
2022/09/08 21:18:27;;;;;;;113.38;30.17;;;17.20;99.90;;;;;;10367827;28;20764;-82
2022/09/08 21:23:29;;;;;;;88.57;27.55;;;17.20;99.90;;;;;;10369142;28;20112;-83
2022/09/08 21:28:43;;;;;;;71.03;24.42;;;17.20;99.90;;;;;;10363716;28;20100;-82
2022/09/08 21:33:54;;;;;;;69.90;27.08;;;17.30;99.90;;;;;;10361872;28;20034;-82
2022/09/08 21:38:57;;;;;;;85.95;30.20;;;17.30;99.90;;;;;;10368159;28;20103;-82
2022/09/08 21:44:22;;;;;;;80.93;29.30;;;17.30;99.90;;;;;;10364320;28;20494;-82
2022/09/08 21:49:26;;;;;;;61.78;26.13;;;17.30;99.90;;;;;;10360294;28;20658;-82
2022/09/08 21:54:48;;;;;;;96.65;35.00;;;17.40;99.90;;;;;;10365591;28;20037;-82
2022/09/08 22:00:19;;;;;;;89.70;33.53;;;17.40;99.90;;;;;;10364987;28;20050;-83
2022/09/08 22:05:27;;;;;;;61.25;28.63;;;17.40;99.90;;;;;;10365073;28;20052;-83
2022/09/08 22:10:29;;;;;;;84.57;34.78;;;17.40;99.90;;;;;;10366222;28;20539;-83
2022/09/08 22:15:35;;;;;;;55.88;25.80;;;17.40;99.90;;;;;;10365587;28;20098;-86
2022/09/08 22:20:51;;;;;;;53.85;25.58;;;17.30;99.90;;;;;;10366379;28;20042;-83
2022/09/08 22:26:03;;;;;;;51.45;23.10;;;17.30;99.90;;;;;;10365916;28;20053;-84
2022/09/08 22:31:23;;;;;;;62.20;25.35;;;17.20;99.90;;;;;;10364401;28;20034;-82
2022/09/08 22:36:29;;;;;;;71.32;26.95;;;17.20;99.90;;;;;;10364086;28;20034;-82
2022/09/08 22:41:39;;;;;;;50.75;22.20;;;17.20;99.90;;;;;;10364029;28;20145;-85
2022/09/08 22:46:53;;;;;;;55.88;23.27;;;17.10;99.90;;;;;;10362995;28;20060;-82
2022/09/08 22:52:25;;;;;;;64.30;26.23;;;17.10;99.90;;;;;;10361424;28;20034;-82
2022/09/08 22:57:29;;;;;;;76.53;28.88;;;17.10;99.90;;;;;;10362905;28;20486;-82
2022/09/08 23:03:05;;;;;;;73.72;27.80;;;17.10;99.90;;;;;;10364264;28;20116;-83
2022/09/08 23:08:11;;;;;;;61.55;27.27;;;17.10;99.90;;;;;;10357951;28;20041;-82
2022/09/08 23:13:21;;;;;;;71.10;30.90;;;17.10;99.90;;;;;;10362889;28;20030;-83
2022/09/08 23:18:40;;;;;;;74.60;28.63;;;17.10;99.90;;;;;;10360971;28;20092;-83
2022/09/08 23:23:45;;;;;;;62.97;25.15;;;17.10;99.90;;;;;;10364260;28;20036;-83
2022/09/08 23:29:05;;;;;;;85.28;32.22;;;17.10;99.90;;;;;;10364181;28;20066;-83
2022/09/08 23:34:56;;;;;;;89.18;32.40;;;17.00;99.90;;;;;;10352089;28;20035;-82
2022/09/08 23:40:33;;;;;;;96.13;30.38;;;17.00;99.90;;;;;;10334836;28;20053;-83
2022/09/08 23:45:36;;;;;;;88.57;30.92;;;16.90;99.90;;;;;;10357452;28;20038;-83
2022/09/08 23:50:37;;;;;;;91.35;30.23;;;16.80;99.90;;;;;;10357754;28;20026;-83
2022/09/08 23:55:42;;;;;;;91.80;30.70;;;16.80;99.90;;;;;;10363292;28;20065;-82
